Time;durP1;ratioP1;P1;durP2;ratioP2;P2;SDS_P1;SDS_P2;PMS_P1;PMS_P2;Temp;Humidity;BMP_temperature;BMP_pressure;BME280_temperature;BME280_humidity;BME280_pressure;Samples;Min_cycle;Max_cycle;Signal;HPM_P1;HPM_P2
2023/04/23 00:00:12;;;;;;;24.35;16.35;;;;;;;17.99;51.26;100850.06;5033126;28;20045;-43
2023/04/23 00:02:38;;;;;;;25.50;16.60;;;;;;;17.98;51.14;100843.03;5030035;28;20042;-43
2023/04/23 00:05:06;;;;;;;23.17;15.63;;;;;;;17.97;51.13;100836.00;5033041;28;20125;-44
2023/04/23 00:07:33;;;;;;;25.65;16.55;;;;;;;17.97;51.03;100836.00;5028016;28;20054;-43
2023/04/23 00:10:03;;;;;;;27.15;16.35;;;;;;;17.96;51.24;100836.97;5031651;28;20049;-44
2023/04/23 00:12:31;;;;;;;24.50;16.48;;;;;;;17.94;51.40;100833.59;5030344;28;20041;-44
2023/04/23 00:14:59;;;;;;;24.90;15.93;;;;;;;17.92;51.14;100825.69;5030141;28;20060;-44
2023/04/23 00:17:26;;;;;;;27.92;17.23;;;;;;;17.92;51.63;100825.69;5031860;28;20053;-43
2023/04/23 00:19:53;;;;;;;25.27;17.17;;;;;;;17.90;51.56;100821.50;5034041;28;20052;-44
2023/04/23 00:22:20;;;;;;;23.98;15.40;;;;;;;17.91;51.35;100823.19;5030734;28;20132;-44
2023/04/23 00:24:47;;;;;;;24.50;16.05;;;;;;;17.88;51.37;100827.00;5034062;28;20053;-44
2023/04/23 00:27:14;;;;;;;25.10;16.42;;;;;;;17.88;50.85;100824.31;5032433;28;20049;-43
2023/04/23 00:29:42;;;;;;;24.15;15.48;;;;;;;17.87;51.39;100827.16;5033082;28;20446;-44
2023/04/23 00:32:08;;;;;;;27.08;16.60;;;;;;;17.87;51.16;100819.97;5031321;28;20060;-44
2023/04/23 00:34:35;;;;;;;25.75;16.27;;;;;;;17.85;51.02;100821.97;5035565;28;20084;-44
2023/04/23 00:37:05;;;;;;;27.05;15.88;;;;;;;17.86;51.09;100814.75;5032348;28;20056;-43
2023/04/23 00:39:32;;;;;;;26.75;16.98;;;;;;;17.84;51.16;100814.91;5033948;28;20056;-44
2023/04/23 00:42:05;;;;;;;22.95;14.57;;;;;;;17.84;51.33;100822.09;5031193;28;20362;-44
2023/04/23 00:44:32;;;;;;;;;;;;;;;17.82;51.18;100810.69;5029467;28;20386;-43
2023/04/23 00:46:59;;;;;;;20.95;14.23;;;;;;;17.86;51.44;100804.03;5025813;28;20346;-43
2023/04/23 00:49:27;;;;;;;26.35;15.73;;;;;;;17.83;51.26;100799.81;5029202;28;20051;-43
2023/04/23 00:51:53;;;;;;;24.45;16.40;;;;;;;17.82;50.98;100797.28;5030813;28;20436;-44
2023/04/23 00:54:20;;;;;;;23.83;14.85;;;;;;;17.82;51.33;100797.28;5025263;28;20476;-44
2023/04/23 00:56:48;;;;;;;21.42;14.63;;;;;;;17.82;51.24;100794.63;5029346;28;20055;-43
2023/04/23 00:59:15;;;;;;;21.80;14.75;;;;;;;17.81;51.26;100783.06;5028143;28;20333;-45
2023/04/23 01:01:44;;;;;;;23.25;15.07;;;;;;;17.82;51.22;100783.88;5028638;28;20076;-43
2023/04/23 01:04:16;;;;;;;22.10;14.25;;;;;;;17.81;51.35;100780.38;5028899;28;20095;-43
2023/04/23 01:06:45;;;;;;;21.08;13.98;;;;;;;17.82;51.37;100786.56;5030217;28;20081;-43
2023/04/23 01:09:14;;;;;;;20.17;13.40;;;;;;;17.81;51.84;100774.13;5031353;28;20072;-44
2023/04/23 01:11:42;;;;;;;22.48;15.10;;;;;;;17.82;51.44;100778.53;5027163;28;20052;-44
2023/04/23 01:14:10;;;;;;;21.48;14.13;;;;;;;17.80;51.21;100773.31;5027760;28;21429;-43
2023/04/23 01:16:37;;;;;;;19.13;13.88;;;;;;;17.80;51.03;100767.94;5030302;28;20050;-43
2023/04/23 01:19:09;;;;;;;22.35;14.27;;;;;;;17.80;51.15;100773.31;5027210;28;20326;-43
2023/04/23 01:21:40;;;;;;;21.52;13.77;;;;;;;17.80;51.07;100767.94;5029928;28;20060;-43
2023/04/23 01:24:07;;;;;;;18.95;13.00;;;;;;;17.79;51.35;100765.44;5028554;28;20057;-43
2023/04/23 01:26:34;;;;;;;22.05;15.30;;;;;;;17.80;51.41;100764.41;5026195;28;20065;-43
2023/04/23 01:29:01;;;;;;;21.35;13.70;;;;;;;17.79;51.09;100770.78;5028665;28;20053;-43
2023/04/23 01:31:29;;;;;;;21.50;13.80;;;;;;;17.79;51.58;100760.06;5030001;28;20461;-43
2023/04/23 01:33:57;;;;;;;21.73;14.10;;;;;;;17.78;51.35;100758.38;5031528;28;20055;-43
2023/04/23 01:36:24;;;;;;;22.55;14.35;;;;;;;17.78;51.25;100750.34;5025910;28;20044;-43
2023/04/23 01:38:52;;;;;;;22.08;13.95;;;;;;;17.78;51.31;100750.34;5022606;28;20049;-43
2023/04/23 01:41:21;;;;;;;21.15;13.93;;;;;;;17.79;51.43;100743.97;5027979;28;20057;-43
2023/04/23 01:43:48;;;;;;;21.17;13.65;;;;;;;17.76;51.12;100742.44;5023281;28;20042;-43
2023/04/23 01:46:15;;;;;;;19.90;14.10;;;;;;;17.76;51.15;100745.97;5019656;28;20278;-43
2023/04/23 01:48:41;;;;;;;22.17;14.07;;;;;;;17.76;51.38;100743.28;5021789;28;20049;-43
2023/04/23 01:51:08;;;;;;;22.83;13.32;;;;;;;17.75;50.91;100755.00;5025525;28;20045;-43
2023/04/23 01:53:35;;;;;;;21.63;13.35;;;;;;;17.76;51.30;100740.59;5024850;28;20049;-44
2023/04/23 01:56:02;;;;;;;21.05;13.85;;;;;;;17.76;50.92;100739.75;5027336;28;20049;-44
2023/04/23 01:58:29;;;;;;;21.13;13.60;;;;;;;17.74;51.24;100744.41;5023141;28;20049;-44
2023/04/23 02:00:56;;;;;;;21.60;13.85;;;;;;;17.73;51.43;100735.53;5025085;28;20046;-43
2023/04/23 02:03:22;;;;;;;20.58;13.82;;;;;;;17.73;51.27;100735.53;5024620;28;20053;-42
2023/04/23 02:05:49;;;;;;;20.88;13.63;;;;;;;17.73;51.44;100732.84;5028392;28;20063;-43
2023/04/23 02:08:16;;;;;;;21.88;14.13;;;;;;;17.72;51.54;100727.63;5034256;28;20067;-43
2023/04/23 02:10:43;;;;;;;20.05;13.55;;;;;;;17.72;51.19;100728.47;5036697;28;20049;-44
2023/04/23 02:13:09;;;;;;;18.40;12.18;;;;;;;17.70;51.03;100719.75;5028808;28;20057;-43
2023/04/23 02:15:37;;;;;;;18.77;12.45;;;;;;;17.71;50.90;100715.22;5030201;28;20056;-43
2023/04/23 02:18:03;;;;;;;19.48;12.77;;;;;;;17.70;51.29;100714.38;5025845;28;20071;-43
2023/04/23 02:20:30;;;;;;;21.45;13.60;;;;;;;17.70;51.34;100711.72;5031820;28;20079;-43
2023/04/23 02:22:56;;;;;;;19.60;12.57;;;;;;;17.68;51.06;100711.00;5029713;28;20441;-43
2023/04/23 02:25:23;;;;;;;20.50;13.00;;;;;;;17.69;51.20;100720.75;5029487;28;20053;-43
2023/04/23 02:27:50;;;;;;;20.17;13.00;;;;;;;17.69;51.60;100719.91;5028852;28;20049;-43
2023/04/23 02:30:16;;;;;;;17.58;12.30;;;;;;;17.68;51.79;100708.31;5031529;28;20393;-44
2023/04/23 02:32:43;;;;;;;17.00;11.45;;;;;;;17.68;51.45;100705.66;5028892;28;20053;-43
2023/04/23 02:35:09;;;;;;;19.80;12.25;;;;;;;17.68;51.13;100704.81;5035354;28;20049;-43
2023/04/23 02:37:36;;;;;;;19.20;12.38;;;;;;;17.68;51.44;100711.00;5030208;28;20084;-43
2023/04/23 02:40:06;;;;;;;17.77;12.85;;;;;;;17.67;51.43;100705.81;5032089;28;20045;-43
2023/04/23 02:42:33;;;;;;;18.35;12.52;;;;;;;17.67;51.27;100708.50;5029904;28;20276;-43
2023/04/23 02:45:00;;;;;;;20.35;12.70;;;;;;;17.66;51.56;100713.00;5028067;28;20077;-44
2023/04/23 02:47:26;;;;;;;17.85;12.40;;;;;;;17.66;51.24;100712.19;5023924;28;20136;-43
2023/04/23 02:49:53;;;;;;;20.88;12.68;;;;;;;17.64;51.29;100706.94;5029675;28;20386;-43
2023/04/23 02:52:20;;;;;;;20.05;12.52;;;;;;;17.64;51.41;100708.78;5031796;28;20057;-43
2023/04/23 02:54:47;;;;;;;17.70;11.95;;;;;;;17.64;51.22;100711.47;5027194;28;20132;-43
2023/04/23 02:57:15;;;;;;;18.48;11.75;;;;;;;17.64;51.21;100711.47;5030478;28;20132;-42
2023/04/23 02:59:42;;;;;;;18.33;11.60;;;;;;;17.63;50.95;100709.78;5037098;28;20385;-45
2023/04/23 03:02:08;;;;;;;19.45;12.98;;;;;;;17.60;51.08;100710.94;5026454;28;20057;-43
2023/04/23 03:04:35;;;;;;;17.08;11.50;;;;;;;17.60;51.22;100702.91;5036391;28;20049;-43
2023/04/23 03:07:02;;;;;;;19.60;12.60;;;;;;;17.59;51.50;100711.94;5033667;28;20045;-43
2023/04/23 03:09:28;;;;;;;17.85;12.45;;;;;;;17.58;51.08;100710.25;5026752;28;20081;-43
2023/04/23 03:11:56;;;;;;;17.23;11.48;;;;;;;17.57;51.08;100711.28;5029053;28;20407;-43
2023/04/23 03:14:23;;;;;;;17.88;12.32;;;;;;;17.58;51.08;100712.09;5033479;28;20073;-43
2023/04/23 03:16:49;;;;;;;17.52;11.80;;;;;;;17.57;51.12;100708.59;5028168;28;20058;-43
2023/04/23 03:19:16;;;;;;;16.40;11.27;;;;;;;17.56;51.02;100716.75;5036185;28;20064;-43
2023/04/23 03:21:42;;;;;;;15.77;11.43;;;;;;;17.56;51.42;100708.72;5028109;28;20145;-43
2023/04/23 03:24:12;;;;;;;15.13;10.52;;;;;;;17.54;51.25;100706.22;5032628;28;20053;-43
2023/04/23 03:26:38;;;;;;;14.80;10.63;;;;;;;17.55;51.29;100713.25;5031735;28;20041;-43
2023/04/23 03:29:05;;;;;;;15.05;10.50;;;;;;;17.54;51.21;100706.22;5033545;28;20068;-43
2023/04/23 03:31:32;;;;;;;17.02;11.18;;;;;;;17.52;51.27;100698.31;5030108;28;20056;-43
2023/04/23 03:33:59;;;;;;;15.15;10.48;;;;;;;17.52;51.32;100705.50;5026357;28;20048;-43
2023/04/23 03:36:25;;;;;;;14.32;10.27;;;;;;;17.52;51.25;100700.97;5029360;28;20099;-44
2023/04/23 03:38:52;;;;;;;18.77;11.43;;;;;;;17.52;51.24;100705.50;5030347;28;20052;-43
2023/04/23 03:41:18;;;;;;;15.80;10.73;;;;;;;17.51;51.41;100703.81;5027767;28;20372;-43
2023/04/23 03:43:45;;;;;;;13.98;9.52;;;;;;;17.51;51.55;100701.16;5030623;28;20042;-43
2023/04/23 03:46:11;;;;;;;14.55;10.18;;;;;;;17.51;51.30;100709.19;5032597;28;20045;-43
2023/04/23 03:48:38;;;;;;;14.82;10.38;;;;;;;17.50;51.62;100704.84;5033070;28;20049;-44
2023/04/23 03:51:05;;;;;;;14.30;10.02;;;;;;;17.49;51.47;100690.59;5037019;28;20051;-43
2023/04/23 03:53:31;;;;;;;13.43;9.63;;;;;;;17.49;51.52;100700.47;5032519;28;20141;-43
2023/04/23 03:55:58;;;;;;;15.43;9.75;;;;;;;17.49;51.38;100695.13;5037631;28;20049;-42
2023/04/23 03:58:24;;;;;;;13.63;9.43;;;;;;;17.48;51.44;100688.88;5036420;28;20068;-42
2023/04/23 04:00:51;;;;;;;15.55;9.30;;;;;;;17.48;51.57;100685.38;5036061;28;20064;-43
2023/04/23 04:03:18;;;;;;;12.70;9.32;;;;;;;17.48;51.29;100680.00;5029786;28;20053;-43
2023/04/23 04:05:44;;;;;;;13.40;10.00;;;;;;;17.47;51.10;100681.00;5036168;28;20395;-43
2023/04/23 04:08:11;;;;;;;18.13;9.95;;;;;;;17.47;51.21;100689.06;5039168;28;20515;-42
2023/04/23 04:10:38;;;;;;;14.23;9.27;;;;;;;17.47;51.56;100689.06;5029196;28;20455;-42
2023/04/23 04:13:04;;;;;;;14.57;10.10;;;;;;;17.47;51.08;100691.72;5027409;28;20155;-43
2023/04/23 04:15:31;;;;;;;14.25;9.70;;;;;;;17.47;51.75;100691.72;5030584;28;20330;-43
2023/04/23 04:17:59;;;;;;;13.23;8.77;;;;;;;17.46;51.52;100690.06;5024637;28;20132;-43
2023/04/23 04:20:29;;;;;;;16.92;10.05;;;;;;;17.45;51.55;100691.06;5027102;28;20107;-43
2023/04/23 04:22:56;;;;;;;14.35;8.60;;;;;;;17.46;51.60;100692.75;5028892;28;20053;-43
2023/04/23 04:25:23;;;;;;;13.93;9.85;;;;;;;17.45;51.77;100693.75;5029583;28;20045;-43
2023/04/23 04:27:49;;;;;;;15.00;8.35;;;;;;;17.45;51.62;100691.06;5030181;28;20087;-43
2023/04/23 04:30:16;;;;;;;12.80;9.00;;;;;;;17.45;51.48;100693.75;5031026;28;20072;-43
2023/04/23 04:32:44;;;;;;;12.38;8.77;;;;;;;17.44;51.50;100687.50;5029870;28;20437;-42
2023/04/23 04:35:14;;;;;;;12.02;8.32;;;;;;;17.44;51.85;100695.56;5026914;28;20286;-44
2023/04/23 04:37:42;;;;;;;10.77;7.72;;;;;;;17.44;51.33;100692.03;5037157;28;20045;-45
2023/04/23 04:40:10;;;;;;;10.77;7.78;;;;;;;17.44;51.63;100686.69;5028534;28;20073;-42
2023/04/23 04:42:37;;;;;;;10.82;7.88;;;;;;;17.44;51.63;100692.03;5026544;28;20460;-44
2023/04/23 04:45:05;;;;;;;14.15;8.85;;;;;;;17.44;51.55;100694.72;5025111;28;20041;-45
2023/04/23 04:47:31;;;;;;;13.63;8.95;;;;;;;17.44;51.23;100697.38;5025038;28;20049;-45
2023/04/23 04:49:59;;;;;;;11.32;8.75;;;;;;;17.43;51.62;100687.69;5029138;28;20075;-45
2023/04/23 04:52:26;;;;;;;12.60;8.25;;;;;;;17.42;51.69;100700.25;5023753;28;20102;-44
2023/04/23 04:54:53;;;;;;;13.13;8.88;;;;;;;17.42;51.52;100694.88;5026245;28;20037;-43
2023/04/23 04:57:21;;;;;;;12.48;8.32;;;;;;;17.43;51.47;100701.06;5026274;28;20076;-43
2023/04/23 04:59:49;;;;;;;11.13;8.10;;;;;;;17.42;51.50;100691.34;5030887;28;20416;-43
2023/04/23 05:02:15;;;;;;;10.90;8.02;;;;;;;17.44;51.33;100689.34;5027421;28;21055;-43
2023/04/23 05:04:42;;;;;;;11.77;8.13;;;;;;;17.44;51.44;100692.03;5028204;28;20353;-42
2023/04/23 05:07:09;;;;;;;10.63;7.45;;;;;;;17.47;51.51;100691.72;5028439;28;20134;-45
2023/04/23 05:09:36;;;;;;;9.70;7.25;;;;;;;17.48;51.48;100686.22;5030186;28;20414;-42
2023/04/23 05:12:06;;;;;;;11.10;7.78;;;;;;;17.50;51.33;100688.75;5027142;28;20053;-44
2023/04/23 05:14:32;;;;;;;10.15;7.32;;;;;;;17.50;51.22;100691.44;5029537;28;20349;-44
2023/04/23 05:16:59;;;;;;;10.52;7.50;;;;;;;17.52;51.58;100684.06;5031312;28;20132;-43
2023/04/23 05:19:26;;;;;;;9.70;7.03;;;;;;;17.54;51.53;100686.63;5031700;28;20044;-43
2023/04/23 05:21:52;;;;;;;11.48;7.45;;;;;;;17.56;51.32;100687.28;5038808;28;20064;-44
2023/04/23 05:24:19;;;;;;;9.15;6.38;;;;;;;17.55;51.39;100683.75;5032460;28;20052;-44
2023/04/23 05:26:46;;;;;;;12.88;8.02;;;;;;;17.58;51.20;100693.34;5031379;28;20397;-44
2023/04/23 05:29:16;;;;;;;8.10;6.38;;;;;;;17.59;51.37;100700.38;5031640;28;20128;-44
2023/04/23 05:31:43;;;;;;;10.75;7.40;;;;;;;17.60;50.87;100710.94;5026715;28;20103;-44
2023/04/23 05:34:09;;;;;;;10.27;7.43;;;;;;;17.62;51.82;100716.16;5030884;28;20056;-44
2023/04/23 05:36:36;;;;;;;9.13;7.22;;;;;;;17.63;51.06;100702.59;5034119;28;20049;-44
2023/04/23 05:39:02;;;;;;;9.65;7.25;;;;;;;17.64;51.22;100706.94;5034279;28;20064;-44
2023/04/23 05:41:29;;;;;;;11.10;8.13;;;;;;;17.66;51.34;100702.28;5035994;28;20064;-44
2023/04/23 05:43:56;;;;;;;10.25;7.15;;;;;;;17.68;51.38;100700.28;5038847;28;20446;-44
2023/04/23 05:46:22;;;;;;;9.93;7.13;;;;;;;17.69;51.29;100696.63;5036159;28;20061;-45
2023/04/23 05:48:49;;;;;;;10.13;6.10;;;;;;;17.73;51.37;100695.31;5040004;28;20053;-44
2023/04/23 05:51:16;;;;;;;9.60;6.82;;;;;;;17.75;51.35;100700.56;5041084;28;20045;-44
2023/04/23 05:53:42;;;;;;;11.85;7.65;;;;;;;17.79;51.54;100698.41;5041529;28;20088;-44
2023/04/23 05:56:09;;;;;;;10.77;7.50;;;;;;;17.81;51.36;100697.25;5042896;28;20160;-44
2023/04/23 05:58:37;;;;;;;9.73;6.88;;;;;;;17.84;51.38;100691.56;5036205;28;20049;-44
2023/04/23 06:01:04;;;;;;;10.00;7.63;;;;;;;17.87;51.28;100688.56;5035359;28;20076;-44
2023/04/23 06:03:30;;;;;;;11.40;7.28;;;;;;;17.88;51.35;100692.09;5029502;28;20631;-44
2023/04/23 06:05:57;;;;;;;11.55;7.13;;;;;;;17.91;51.10;100691.78;5027608;28;20053;-44
2023/04/23 06:08:24;;;;;;;9.45;6.75;;;;;;;17.94;51.19;100688.81;5029144;28;20060;-44
2023/04/23 06:10:50;;;;;;;10.25;6.97;;;;;;;17.96;51.23;100684.13;5030658;28;20136;-44
2023/04/23 06:13:17;;;;;;;9.70;6.72;;;;;;;17.97;51.03;100681.28;5029829;28;20053;-44
2023/04/23 06:15:44;;;;;;;13.45;7.60;;;;;;;17.99;51.16;100683.81;5036191;28;20053;-44
2023/04/23 06:18:10;;;;;;;10.77;7.32;;;;;;;18.00;50.87;100675.59;5030442;28;20463;-44
2023/04/23 06:20:37;;;;;;;9.05;6.72;;;;;;;18.03;50.76;100681.66;5042354;28;20133;-44
2023/04/23 06:23:03;;;;;;;9.90;6.60;;;;;;;18.04;50.78;100673.44;5036225;28;20333;-44
2023/04/23 06:25:30;;;;;;;9.82;7.57;;;;;;;18.07;51.11;100677.66;5036334;28;20120;-44
2023/04/23 06:27:57;;;;;;;9.68;6.93;;;;;;;18.09;51.09;100683.69;5031133;28;20055;-44
2023/04/23 06:30:23;;;;;;;10.95;7.45;;;;;;;18.10;51.15;100677.34;5034189;28;20452;-44
2023/04/23 06:32:50;;;;;;;14.43;7.75;;;;;;;18.12;51.10;100669.97;5029591;28;20060;-44
2023/04/23 06:35:16;;;;;;;12.60;7.97;;;;;;;18.12;50.80;100665.44;5030854;28;20350;-44
2023/04/23 06:37:43;;;;;;;11.13;7.57;;;;;;;18.15;50.79;100664.28;5030170;28;20045;-44
2023/04/23 06:40:10;;;;;;;11.50;7.65;;;;;;;18.16;51.09;100665.97;5035768;28;20049;-44
2023/04/23 06:42:36;;;;;;;12.48;8.52;;;;;;;18.17;50.84;100663.16;5030781;28;20060;-44
2023/04/23 06:45:03;;;;;;;11.70;8.20;;;;;;;18.18;51.03;100662.13;5031687;28;20044;-44
2023/04/23 06:47:32;;;;;;;12.98;8.63;;;;;;;18.20;51.10;100667.34;5029278;28;20044;-44
2023/04/23 06:49:59;;;;;;;13.48;8.05;;;;;;;18.21;51.07;100661.81;5037429;28;20153;-44
2023/04/23 06:52:26;;;;;;;12.10;8.32;;;;;;;18.23;50.91;100658.97;5036774;28;20052;-44
2023/04/23 06:54:52;;;;;;;12.57;9.07;;;;;;;18.25;50.76;100659.63;5028602;28;20133;-44
2023/04/23 06:57:20;;;;;;;12.43;8.93;;;;;;;18.25;50.90;100655.16;5030250;28;20340;-44
2023/04/23 06:59:47;;;;;;;14.57;9.23;;;;;;;18.25;50.94;100655.16;5035340;28;20045;-44
2023/04/23 07:02:13;;;;;;;12.77;8.90;;;;;;;18.28;50.82;100653.97;5033221;28;20045;-44
2023/04/23 07:04:40;;;;;;;12.35;8.82;;;;;;;18.29;50.96;100658.34;5030784;28;20099;-44
2023/04/23 07:07:07;;;;;;;15.38;9.43;;;;;;;18.30;51.12;100657.34;5029541;28;20514;-44
2023/04/23 07:09:34;;;;;;;14.20;8.70;;;;;;;18.31;51.28;100664.38;5027670;28;20056;-44
2023/04/23 07:12:01;;;;;;;12.95;8.73;;;;;;;18.33;50.93;100657.03;5026596;28;20346;-44
2023/04/23 07:14:27;;;;;;;15.07;9.60;;;;;;;18.34;50.86;100657.88;5027956;28;21135;-44
2023/04/23 07:16:54;;;;;;;14.10;9.52;;;;;;;18.33;50.83;100648.09;5027522;28;20041;-44
2023/04/23 07:19:21;;;;;;;15.88;9.32;;;;;;;18.35;50.66;100654.16;5038249;28;20049;-44
2023/04/23 07:21:47;;;;;;;13.85;9.43;;;;;;;18.35;50.99;100648.81;5030817;28;20064;-44
2023/04/23 07:24:14;;;;;;;14.18;9.48;;;;;;;18.35;50.43;100654.16;5028650;28;20050;-44
2023/04/23 07:26:40;;;;;;;17.17;10.40;;;;;;;18.35;50.31;100643.44;5024475;28;20049;-44
2023/04/23 07:29:09;;;;;;;18.10;9.60;;;;;;;18.36;50.63;100642.44;5033136;28;20056;-44
2023/04/23 07:31:36;;;;;;;16.70;9.57;;;;;;;18.36;50.67;100634.38;5031768;28;20049;-44
2023/04/23 07:34:02;;;;;;;12.43;8.45;;;;;;;18.35;50.80;100630.03;5030477;28;20486;-44
2023/04/23 07:36:30;;;;;;;14.82;9.60;;;;;;;18.35;50.50;100638.06;5022460;28;20356;-43
2023/04/23 07:38:57;;;;;;;17.85;10.50;;;;;;;18.36;50.86;100634.38;5021731;28;20356;-43
2023/04/23 07:41:24;;;;;;;14.30;9.70;;;;;;;18.36;50.51;100631.69;5023957;28;20434;-43
2023/04/23 07:43:50;;;;;;;17.27;10.32;;;;;;;18.37;50.81;100638.75;5027975;28;20089;-43
2023/04/23 07:46:17;;;;;;;16.30;9.93;;;;;;;18.37;50.82;100631.56;5031727;28;20038;-43
2023/04/23 07:48:44;;;;;;;18.40;10.77;;;;;;;18.37;50.54;100638.75;5036902;28;20277;-44
2023/04/23 07:51:11;;;;;;;19.05;10.38;;;;;;;18.37;50.87;100638.75;5035859;28;20337;-43
2023/04/23 07:53:37;;;;;;;15.32;10.57;;;;;;;18.37;50.89;100630.69;5034168;28;20049;-44
2023/04/23 07:56:04;;;;;;;18.00;10.75;;;;;;;18.38;50.94;100635.06;5034131;28;20041;-44
2023/04/23 07:58:32;;;;;;;15.55;10.23;;;;;;;18.38;50.64;100637.75;5031894;28;20441;-45
2023/04/23 08:00:58;;;;;;;17.02;10.07;;;;;;;18.38;50.92;100632.41;5034801;28;20053;-43
2023/04/23 08:03:26;;;;;;;16.98;9.70;;;;;;;18.38;51.07;100629.72;5025905;28;20041;-42
2023/04/23 08:05:53;;;;;;;17.20;10.05;;;;;;;18.39;50.40;100631.38;5038893;28;20045;-42
2023/04/23 08:08:20;;;;;;;19.30;9.95;;;;;;;18.38;50.83;100627.88;5029851;28;20072;-44
2023/04/23 08:10:46;;;;;;;15.93;9.52;;;;;;;18.40;51.14;100627.69;5036123;28;20065;-45
2023/04/23 08:13:13;;;;;;;16.73;9.48;;;;;;;18.41;50.88;100632.03;5033264;28;20124;-44
2023/04/23 08:15:39;;;;;;;17.00;9.25;;;;;;;18.40;50.95;100628.53;5036897;28;20041;-43
2023/04/23 08:18:06;;;;;;;18.60;10.05;;;;;;;18.41;50.72;100627.56;5028648;28;20301;-43
2023/04/23 08:20:33;;;;;;;19.85;10.25;;;;;;;18.42;50.49;100613.13;5028802;28;20053;-44
2023/04/23 08:23:00;;;;;;;20.42;11.88;;;;;;;18.43;50.47;100609.44;5030872;28;20052;-43
2023/04/23 08:25:26;;;;;;;15.30;8.75;;;;;;;18.44;50.66;100610.25;5034223;28;20472;-43
2023/04/23 08:27:53;;;;;;;19.98;8.98;;;;;;;18.45;50.60;100603.88;5028670;28;20461;-43
2023/04/23 08:30:20;;;;;;;17.33;8.32;;;;;;;18.45;51.09;100614.63;5029052;28;20405;-43
2023/04/23 08:32:49;;;;;;;15.13;8.50;;;;;;;18.45;50.48;100615.50;5025756;28;20475;-43
2023/04/23 08:35:16;;;;;;;17.60;9.40;;;;;;;18.46;50.59;100617.16;5029055;28;20132;-43
2023/04/23 08:37:43;;;;;;;22.00;11.80;;;;;;;18.47;50.32;100610.78;5027320;28;20053;-43
2023/04/23 08:40:10;;;;;;;25.42;14.73;;;;;;;18.49;50.46;100613.28;5027282;28;20056;-43
2023/04/23 08:42:56;;;;;;;26.40;15.32;;;;;;;18.50;50.74;100609.63;5025920;28;20049;-43
2023/04/23 08:45:25;;;;;;;22.20;13.55;;;;;;;18.52;50.87;100618.34;5027694;28;20428;-43
2023/04/23 08:47:57;;;;;;;24.52;14.65;;;;;;;18.55;50.97;100611.81;5022061;28;20057;-43
2023/04/23 08:50:28;;;;;;;27.73;15.40;;;;;;;18.56;50.57;100617.00;5025423;28;20421;-43
2023/04/23 08:52:56;;;;;;;25.08;15.07;;;;;;;18.57;51.03;100604.44;5025806;28;20391;-43
2023/04/23 08:55:24;;;;;;;27.95;15.50;;;;;;;18.58;50.78;100614.19;5022941;28;20118;-43
2023/04/23 08:57:51;;;;;;;28.33;15.45;;;;;;;18.61;50.94;100606.63;5016469;28;20353;-45
2023/04/23 09:00:20;;;;;;;29.70;15.43;;;;;;;18.63;50.87;100610.00;5010988;28;20229;-43
2023/04/23 09:02:49;;;;;;;25.73;15.00;;;;;;;18.68;51.23;100609.50;5020648;28;20053;-43
2023/04/23 09:05:16;;;;;;;26.10;15.13;;;;;;;18.72;50.90;100624.31;5017683;28;20135;-41
2023/04/23 09:07:43;;;;;;;25.27;14.80;;;;;;;18.76;51.10;100611.41;5015398;28;20061;-44
2023/04/23 09:10:11;;;;;;;23.98;14.07;;;;;;;18.80;51.17;100621.66;5016796;28;20045;-42
2023/04/23 09:12:42;;;;;;;24.98;14.10;;;;;;;18.85;50.76;100613.94;5018806;28;20059;-39
2023/04/23 09:15:10;;;;;;;23.08;14.18;;;;;;;18.87;50.68;100609.25;5014326;28;20037;-38
2023/04/23 09:17:39;;;;;;;23.08;13.93;;;;;;;18.91;50.82;100613.28;5018664;28;20144;-37
2023/04/23 09:20:08;;;;;;;24.20;14.48;;;;;;;18.95;50.97;100598.53;5015034;28;20073;-36
2023/04/23 09:22:44;;;;;;;24.33;12.90;;;;;;;18.99;51.04;100599.88;5020372;28;20140;-39
2023/04/23 09:25:16;;;;;;;24.80;13.65;;;;;;;19.06;50.99;100601.91;5018058;28;20136;-36
2023/04/23 09:27:45;;;;;;;23.30;13.77;;;;;;;19.11;50.76;100602.25;5020490;28;20053;-37
2023/04/23 09:30:12;;;;;;;22.83;13.82;;;;;;;19.17;50.84;100605.09;5018654;28;20050;-36
2023/04/23 09:32:42;;;;;;;21.60;13.18;;;;;;;19.25;50.48;100593.50;5021335;28;20055;-36
2023/04/23 09:35:12;;;;;;;24.70;12.68;;;;;;;19.32;50.27;100593.69;5022090;28;20140;-36
2023/04/23 09:37:47;;;;;;;22.60;13.10;;;;;;;19.38;50.45;100593.84;5013420;28;20051;-36
2023/04/23 09:40:19;;;;;;;23.23;12.63;;;;;;;19.45;50.73;100589.47;5017588;28;20507;-39
2023/04/23 09:42:54;;;;;;;20.05;11.90;;;;;;;19.53;50.12;100583.25;5017212;28;20344;-38
2023/04/23 09:45:23;;;;;;;17.42;10.85;;;;;;;19.61;49.95;100587.78;5019295;28;20056;-36
2023/04/23 09:47:54;;;;;;;20.27;11.77;;;;;;;19.68;49.61;100594.19;5013268;28;20057;-41
2023/04/23 09:50:39;;;;;;;22.10;11.90;;;;;;;19.72;49.99;100587.47;5019969;28;20053;-42
2023/04/23 09:53:08;;;;;;;20.45;11.52;;;;;;;19.78;50.12;100591.28;5018326;28;20465;-42
2023/04/23 09:55:41;;;;;;;18.10;10.55;;;;;;;19.84;49.78;100587.94;5019379;28;20506;-41
2023/04/23 09:58:12;;;;;;;19.17;10.80;;;;;;;19.91;49.22;100581.69;5017261;28;20141;-41
2023/04/23 10:00:39;;;;;;;16.90;10.32;;;;;;;20.00;49.27;100587.88;5017055;28;20076;-40
2023/04/23 10:03:08;;;;;;;42.33;11.30;;;;;;;20.04;49.15;100583.84;5015125;28;20341;-41
2023/04/23 10:05:42;;;;;;;26.20;9.77;;;;;;;20.09;48.83;100588.69;5017917;28;20068;-41
2023/04/23 10:08:14;;;;;;;25.23;8.32;;;;;;;20.15;49.07;100586.16;5022978;28;20348;-41
2023/04/23 10:10:43;;;;;;;20.52;9.93;;;;;;;20.15;48.41;100580.78;5024765;28;20575;-43
2023/04/23 10:13:28;;;;;;;17.83;8.98;;;;;;;20.16;48.99;100582.44;5018185;28;20342;-43
2023/04/23 10:15:55;;;;;;;20.88;9.63;;;;;;;20.20;49.14;100569.50;5018456;28;20512;-39
2023/04/23 10:18:36;;;;;;;17.50;9.02;;;;;;;20.28;48.58;100574.84;5017092;28;20433;-41
2023/04/23 10:21:04;;;;;;;18.60;9.07;;;;;;;20.33;49.48;100577.84;5013229;28;20064;-40
2023/04/23 10:23:33;;;;;;;28.20;9.82;;;;;;;20.38;51.10;100577.31;5017928;28;20430;-41
2023/04/23 10:26:03;;;;;;;23.90;9.75;;;;;;;20.42;52.37;100570.56;5016467;28;20045;-43
2023/04/23 10:28:32;;;;;;;28.05;10.00;;;;;;;20.45;54.00;100576.44;5018046;28;20060;-43
2023/04/23 10:30:59;;;;;;;34.90;12.55;;;;;;;20.48;54.77;100564.47;5019125;28;20124;-41
2023/04/23 10:33:29;;;;;;;48.33;15.77;;;;;;;20.52;54.45;100565.84;5022810;28;20158;-40
2023/04/23 10:36:06;;;;;;;33.10;14.95;;;;;;;20.54;55.24;100563.78;5024674;28;20436;-42
2023/04/23 10:38:34;;;;;;;36.75;15.40;;;;;;;20.55;54.50;100554.72;5016242;28;20061;-41
2023/04/23 10:41:04;;;;;;;31.08;13.80;;;;;;;20.55;54.34;100548.50;5015101;28;20064;-40
2023/04/23 10:43:31;;;;;;;39.35;15.40;;;;;;;20.56;54.36;100542.09;5025119;28;20049;-37
2023/04/23 10:45:59;;;;;;;35.22;17.00;;;;;;;20.58;54.29;100546.28;5022976;28;20353;-38
2023/04/23 10:48:49;;;;;;;42.00;17.08;;;;;;;20.56;54.67;100544.78;5020134;28;20057;-40
2023/04/23 10:51:15;;;;;;;46.30;18.77;;;;;;;20.56;54.75;100542.09;5019812;28;20053;-42
2023/04/23 10:54:03;;;;;;;41.90;18.00;;;;;;;20.55;54.62;100530.47;5025720;28;20354;-43
2023/04/23 10:56:30;;;;;;;38.10;17.35;;;;;;;20.55;54.30;100535.88;5025305;28;20049;-42
2023/04/23 10:58:57;;;;;;;37.17;17.92;;;;;;;20.54;54.08;100530.66;5022824;28;20381;-42
2023/04/23 11:01:26;;;;;;;34.22;17.33;;;;;;;20.52;54.55;100528.13;5026450;28;20053;-42
2023/04/23 11:03:53;;;;;;;37.80;19.50;;;;;;;20.53;54.09;100520.91;5020234;28;20045;-39
2023/04/23 11:06:48;;;;;;;30.00;16.35;;;;;;;20.51;54.70;100514.88;5018712;28;20188;-41
2023/04/23 11:09:35;;;;;;;30.73;17.45;;;;;;;20.50;54.59;100508.63;5021311;28;20052;-41
2023/04/23 11:12:06;;;;;;;32.67;17.73;;;;;;;20.51;53.92;100509.47;5024375;28;20144;-40
2023/04/23 11:14:42;;;;;;;39.13;16.85;;;;;;;20.50;54.06;100514.00;5021979;28;20054;-42
2023/04/23 11:17:14;;;;;;;31.52;15.95;;;;;;;20.49;54.15;100503.41;5027889;28;20530;-40